createdAt,value
2022-09-10T00:00:46.993Z,59.02
2022-09-10T00:03:50.106Z,59.06
2022-09-10T00:06:51.652Z,59.12
2022-09-10T00:09:53.231Z,59.15
2022-09-10T00:12:55.786Z,59.12
2022-09-10T00:15:58.068Z,59.00
2022-09-10T00:19:01.426Z,59.01
2022-09-10T00:22:02.994Z,59.26
2022-09-10T00:25:08.347Z,58.98
2022-09-10T00:28:10.185Z,59.27
2022-09-10T00:31:13.302Z,59.32
2022-09-10T00:34:15.182Z,59.08
2022-09-10T00:37:16.693Z,59.31
2022-09-10T00:40:18.342Z,59.06
2022-09-10T00:43:22.178Z,59.18
2022-09-10T00:46:33.780Z,58.94
2022-09-10T00:49:44.222Z,59.32
2022-09-10T00:52:47.523Z,59.23
2022-09-10T00:55:53.924Z,59.18
2022-09-10T00:58:56.225Z,59.45
2022-09-10T01:01:59.707Z,59.11
2022-09-10T01:05:03.332Z,59.50
2022-09-10T01:08:05.156Z,59.38
2022-09-10T01:11:27.485Z,59.38
2022-09-10T01:14:56.284Z,59.49
2022-09-10T01:18:30.288Z,59.47
2022-09-10T01:22:05.232Z,59.41
2022-09-10T01:25:40.469Z,59.39
2022-09-10T01:29:10.871Z,59.22
2022-09-10T01:32:16.187Z,59.23
2022-09-10T01:35:22.797Z,59.18
2022-09-10T01:38:28.930Z,59.11
2022-09-10T01:41:31.101Z,59.33
2022-09-10T01:44:50.547Z,59.53
2022-09-10T01:48:00.956Z,59.20
2022-09-10T01:51:34.825Z,59.60
2022-09-10T01:55:02.447Z,59.35
2022-09-10T01:58:30.468Z,59.54
2022-09-10T02:01:47.682Z,59.27
2022-09-10T02:04:51.579Z,59.28
2022-09-10T02:07:58.615Z,59.62
2022-09-10T02:11:09.245Z,59.31
2022-09-10T02:14:14.181Z,59.20
2022-09-10T02:17:16.355Z,59.65
2022-09-10T02:20:19.824Z,59.43
2022-09-10T02:23:37.073Z,59.49
2022-09-10T02:26:41.434Z,59.46
2022-09-10T02:29:43.313Z,59.65
2022-09-10T02:32:45.088Z,59.66
2022-09-10T02:35:47.853Z,59.38
2022-09-10T02:38:49.393Z,59.68
2022-09-10T02:41:51.282Z,59.59
2022-09-10T02:44:53.573Z,59.70
2022-09-10T02:47:55.073Z,59.38
2022-09-10T02:50:57.262Z,59.37
2022-09-10T02:53:58.839Z,59.41
2022-09-10T02:57:01.025Z,59.49
2022-09-10T03:00:03.177Z,59.53
2022-09-10T03:03:04.707Z,59.80
2022-09-10T03:06:07.176Z,59.82
2022-09-10T03:09:09.576Z,59.53
2022-09-10T03:12:11.117Z,59.41
2022-09-10T03:15:12.859Z,59.44
2022-09-10T03:18:15.710Z,59.45
2022-09-10T03:21:20.211Z,59.72
2022-09-10T03:24:22.479Z,59.60
2022-09-10T03:27:25.382Z,59.55
2022-09-10T03:30:27.077Z,59.52
2022-09-10T03:33:28.725Z,59.62
2022-09-10T03:36:31.434Z,59.86
2022-09-10T03:39:33.071Z,59.83
2022-09-10T03:42:34.616Z,59.63
2022-09-10T03:45:36.280Z,59.78
2022-09-10T03:48:39.586Z,60.01
2022-09-10T03:51:41.425Z,60.11
2022-09-10T03:54:43.189Z,59.86
2022-09-10T03:57:45.732Z,59.70
2022-09-10T04:00:47.350Z,60.09
2022-09-10T04:03:48.977Z,59.98
2022-09-10T04:06:53.108Z,60.19
2022-09-10T04:09:54.633Z,59.97
2022-09-10T04:12:56.228Z,59.81
2022-09-10T04:16:00.504Z,59.76
2022-09-10T04:19:02.089Z,60.08
2022-09-10T04:22:03.748Z,60.00
2022-09-10T04:25:05.589Z,60.21
2022-09-10T04:28:07.233Z,59.87
2022-09-10T04:31:09.193Z,60.21
2022-09-10T04:34:11.461Z,60.24
2022-09-10T04:37:17.357Z,60.01
2022-09-10T04:40:20.765Z,60.33
2022-09-10T04:43:22.469Z,60.28
2022-09-10T04:46:24.459Z,60.02
2022-09-10T04:49:25.977Z,59.94
2022-09-10T04:52:27.944Z,60.35
2022-09-10T04:55:31.982Z,60.46
2022-09-10T04:58:38.050Z,60.10
2022-09-10T05:01:40.320Z,60.35
2022-09-10T05:04:42.037Z,60.51
2022-09-10T05:07:43.592Z,60.03
2022-09-10T05:10:45.416Z,60.43
2022-09-10T05:13:47.168Z,60.04
2022-09-10T05:16:49.162Z,60.08
2022-09-10T05:19:50.795Z,60.42
2022-09-10T05:22:52.308Z,60.21
2022-09-10T05:25:54.076Z,60.58
2022-09-10T05:28:55.725Z,60.68
2022-09-10T05:31:57.429Z,60.55
2022-09-10T05:34:58.985Z,60.24
2022-09-10T05:38:01.305Z,60.48
2022-09-10T05:41:03.016Z,60.65
2022-09-10T05:44:05.304Z,60.42
2022-09-10T05:47:07.821Z,60.45
2022-09-10T05:50:09.662Z,60.47
2022-09-10T05:53:11.531Z,60.53
2022-09-10T05:56:13.213Z,60.63
2022-09-10T05:59:14.844Z,60.25
2022-09-10T06:02:21.787Z,60.60
2022-09-10T06:05:25.428Z,60.46
2022-09-10T06:08:27.131Z,60.39
2022-09-10T06:11:28.840Z,60.52
2022-09-10T06:14:31.089Z,60.32
2022-09-10T06:17:33.912Z,60.69
2022-09-10T06:20:35.590Z,60.47
2022-09-10T06:23:37.255Z,60.73
2022-09-10T06:26:38.911Z,60.39
2022-09-10T06:29:40.511Z,60.66
2022-09-10T06:32:42.208Z,60.75
2022-09-10T06:35:43.703Z,60.67
2022-09-10T06:38:45.581Z,60.52
2022-09-10T06:41:49.709Z,60.58
2022-09-10T06:44:52.499Z,60.64
2022-09-10T06:51:16.609Z,60.85
2022-09-10T06:54:18.918Z,60.48
2022-09-10T06:57:20.659Z,60.62
2022-09-10T07:00:22.253Z,60.62
2022-09-10T07:03:24.119Z,60.51
2022-09-10T07:06:27.584Z,60.72
2022-09-10T07:09:29.085Z,60.68
2022-09-10T07:12:30.917Z,60.80
2022-09-10T07:15:33.321Z,60.60
2022-09-10T07:18:35.570Z,60.43
2022-09-10T07:21:38.002Z,60.87
2022-09-10T07:24:39.552Z,60.61
2022-09-10T07:27:41.502Z,60.71
2022-09-10T07:30:44.188Z,60.66
2022-09-10T07:33:45.958Z,60.46
2022-09-10T07:36:47.572Z,60.69
2022-09-10T07:39:49.560Z,60.81
2022-09-10T07:42:52.535Z,60.84
2022-09-10T07:45:54.252Z,60.94
2022-09-10T07:48:57.987Z,60.79
2022-09-10T07:52:00.217Z,60.55
2022-09-10T07:55:01.920Z,60.64
2022-09-10T07:58:03.820Z,60.48
2022-09-10T08:01:12.601Z,60.57
2022-09-10T08:04:14.261Z,60.60
2022-09-10T08:07:17.304Z,60.50
2022-09-10T08:10:19.055Z,60.45
2022-09-10T08:13:20.833Z,60.35
2022-09-10T08:16:24.309Z,60.57
2022-09-10T08:19:26.089Z,60.50
2022-09-10T08:22:28.129Z,60.25
2022-09-10T08:25:31.127Z,60.49
2022-09-10T08:28:33.137Z,60.63
2022-09-10T08:31:34.932Z,60.69
2022-09-10T08:34:36.474Z,60.55
2022-09-10T08:37:38.093Z,60.60
2022-09-10T08:40:42.693Z,60.73
2022-09-10T08:43:52.566Z,60.41
2022-09-10T08:46:59.972Z,60.55
2022-09-10T08:50:11.672Z,60.38
2022-09-10T08:53:48.351Z,60.42
2022-09-10T08:56:50.764Z,60.62
2022-09-10T08:59:56.788Z,60.42
2022-09-10T09:03:09.887Z,60.59
2022-09-10T09:06:21.381Z,60.50
2022-09-10T09:09:22.886Z,60.41
2022-09-10T09:12:53.776Z,60.40
2022-09-10T09:16:15.236Z,60.19
2022-09-10T09:19:46.107Z,60.29
2022-09-10T09:23:19.700Z,60.42
2022-09-10T09:26:29.444Z,59.98
2022-09-10T09:29:56.034Z,60.11
2022-09-10T09:33:03.898Z,60.15
2022-09-10T09:36:06.903Z,60.12
2022-09-10T09:39:21.999Z,60.38
2022-09-10T09:42:37.877Z,60.21
2022-09-10T09:45:45.573Z,59.95
2022-09-10T09:48:48.776Z,59.96
2022-09-10T09:51:51.919Z,59.95
2022-09-10T09:55:13.842Z,59.97
2022-09-10T09:58:22.116Z,60.12
2022-09-10T10:01:26.046Z,59.74
2022-09-10T10:04:33.857Z,60.05
2022-09-10T10:07:36.405Z,59.68
2022-09-10T10:10:37.969Z,59.72
2022-09-10T10:13:42.642Z,60.05
2022-09-10T10:16:45.839Z,59.90
2022-09-10T10:19:58.995Z,59.65
2022-09-10T10:23:31.031Z,59.69
2022-09-10T10:26:35.358Z,59.40
2022-09-10T10:29:38.633Z,59.86
2022-09-10T10:32:46.168Z,59.54
2022-09-10T10:36:04.122Z,59.45
2022-09-10T10:39:05.693Z,59.37
2022-09-10T10:42:21.149Z,59.35
2022-09-10T10:45:58.411Z,59.28
2022-09-10T10:49:20.038Z,59.42
2022-09-10T10:52:27.655Z,59.30
2022-09-10T10:55:40.887Z,59.07
2022-09-10T10:58:54.284Z,59.33
2022-09-10T11:02:20.210Z,59.23
2022-09-10T11:05:21.779Z,59.04
2022-09-10T11:08:32.408Z,58.74
2022-09-10T11:11:52.529Z,58.75
2022-09-10T11:15:03.053Z,58.71
2022-09-10T11:18:04.651Z,58.76
2022-09-10T11:21:06.852Z,58.75
2022-09-10T11:24:17.279Z,58.87
2022-09-10T11:27:24.337Z,58.98
2022-09-10T11:30:25.898Z,58.50
2022-09-10T11:33:44.177Z,58.61
2022-09-10T11:36:56.157Z,58.37
2022-09-10T11:40:02.586Z,58.14
2022-09-10T11:43:11.129Z,58.15
2022-09-10T11:46:21.465Z,57.89
2022-09-10T11:49:35.066Z,57.77
2022-09-10T11:52:37.442Z,57.84
2022-09-10T11:56:06.914Z,58.20
2022-09-10T11:59:36.732Z,57.96
2022-09-10T12:03:04.704Z,57.77
2022-09-10T12:06:23.958Z,57.75
2022-09-10T12:09:39.159Z,57.81
2022-09-10T12:12:43.213Z,57.80
2022-09-10T12:15:58.295Z,58.15
2022-09-10T12:19:01.583Z,57.83
2022-09-10T12:22:16.542Z,57.95
2022-09-10T12:25:24.079Z,58.01
2022-09-10T12:28:52.081Z,57.94
2022-09-10T12:32:08.703Z,58.03
2022-09-10T12:35:32.796Z,58.28
2022-09-10T12:38:52.705Z,58.16
2022-09-10T12:41:58.441Z,58.22
2022-09-10T12:45:00.535Z,58.52
2022-09-10T12:48:12.209Z,58.18
2022-09-10T12:51:41.347Z,58.41
2022-09-10T12:55:29.157Z,58.45
2022-09-10T12:58:42.967Z,58.39
2022-09-10T13:01:47.980Z,58.37
2022-09-10T13:05:00.884Z,58.69
2022-09-10T13:08:16.497Z,58.23
2022-09-10T13:11:22.380Z,58.43
2022-09-10T13:14:30.756Z,58.49
2022-09-10T13:17:47.431Z,58.24
2022-09-10T13:20:49.139Z,58.32
2022-09-10T13:23:55.079Z,58.24
2022-09-10T13:27:22.702Z,58.20
2022-09-10T13:30:25.447Z,58.60
2022-09-10T13:33:30.448Z,58.67
2022-09-10T13:36:53.641Z,58.58
2022-09-10T13:40:08.086Z,58.62
2022-09-10T13:43:21.586Z,58.47
2022-09-10T13:46:55.273Z,58.42
2022-09-10T13:50:05.853Z,58.57
2022-09-10T13:53:12.637Z,58.65
2022-09-10T13:56:27.696Z,58.92
2022-09-10T13:59:31.940Z,58.55
2022-09-10T14:02:47.499Z,58.84
2022-09-10T14:05:52.967Z,58.80
2022-09-10T14:09:02.472Z,58.91
2022-09-10T14:12:08.443Z,58.61
2022-09-10T14:15:17.110Z,58.85
2022-09-10T14:18:20.239Z,58.56
2022-09-10T14:21:27.687Z,58.56
2022-09-10T14:24:52.001Z,58.97
2022-09-10T14:27:55.461Z,58.65
2022-09-10T14:31:20.876Z,58.58
2022-09-10T14:34:32.275Z,58.97
2022-09-10T14:37:38.108Z,59.05
2022-09-10T14:40:39.973Z,58.73
2022-09-10T14:43:41.804Z,59.09
2022-09-10T14:46:57.318Z,59.00
2022-09-10T14:50:37.728Z,59.01
2022-09-10T14:53:40.853Z,58.87
2022-09-10T14:56:44.717Z,59.06
2022-09-10T14:59:46.596Z,58.86
2022-09-10T15:02:50.668Z,58.89
2022-09-10T15:05:52.295Z,59.29
2022-09-10T15:08:56.080Z,58.83
2022-09-10T15:12:05.610Z,58.65
2022-09-10T15:15:17.288Z,58.85
2022-09-10T15:18:19.386Z,58.86
2022-09-10T15:21:21.205Z,59.21
2022-09-10T15:24:23.436Z,58.92
2022-09-10T15:27:25.173Z,59.00
2022-09-10T15:30:26.813Z,59.04
2022-09-10T15:33:28.620Z,59.09
2022-09-10T15:36:30.387Z,59.17
2022-09-10T15:39:32.422Z,59.19
2022-09-10T15:42:35.101Z,59.12
2022-09-10T15:45:37.485Z,59.34
2022-09-10T15:48:39.793Z,59.29
2022-09-10T15:51:41.700Z,59.29
2022-09-10T15:54:43.916Z,59.14
2022-09-10T15:57:48.222Z,59.22
2022-09-10T16:00:49.963Z,59.09
2022-09-10T16:03:55.532Z,59.10
2022-09-10T16:06:57.163Z,58.95
2022-09-10T16:09:58.902Z,59.19
2022-09-10T16:13:00.680Z,59.27
2022-09-10T16:16:05.220Z,59.25
2022-09-10T16:19:07.186Z,59.28
2022-09-10T16:22:08.778Z,59.29
2022-09-10T16:25:12.077Z,59.36
2022-09-10T16:28:13.664Z,59.06
2022-09-10T16:31:17.568Z,59.35
2022-09-10T16:34:20.717Z,59.27
2022-09-10T16:37:23.412Z,59.07
2022-09-10T16:40:25.076Z,59.04
2022-09-10T16:43:26.701Z,58.96
2022-09-10T16:46:28.771Z,59.36
2022-09-10T16:49:30.520Z,59.35
2022-09-10T16:52:33.258Z,59.31
2022-09-10T16:55:34.865Z,59.23
2022-09-10T17:01:38.709Z,59.14
2022-09-10T17:04:40.572Z,59.57
2022-09-10T17:07:42.544Z,59.38
2022-09-10T17:10:44.364Z,59.44
2022-09-10T17:13:46.556Z,59.24
2022-09-10T17:16:48.725Z,59.23
2022-09-10T17:19:50.482Z,59.57
2022-09-10T17:22:52.148Z,59.26
2022-09-10T17:25:53.819Z,59.44
2022-09-10T17:28:57.295Z,59.68
2022-09-10T17:31:59.168Z,59.53
2022-09-10T17:35:00.794Z,59.51
2022-09-10T17:38:02.401Z,59.55
2022-09-10T17:41:04.520Z,59.40
2022-09-10T17:44:06.823Z,59.60
2022-09-10T17:47:09.681Z,59.55
2022-09-10T17:50:11.388Z,59.66
2022-09-10T17:53:13.411Z,59.38
2022-09-10T17:56:17.204Z,59.46
2022-09-10T17:59:18.968Z,59.68
2022-09-10T18:02:20.590Z,59.62
2022-09-10T18:05:22.435Z,59.46
2022-09-10T18:08:24.012Z,59.48
2022-09-10T18:11:28.374Z,59.19
2022-09-10T18:14:31.162Z,59.40
2022-09-10T18:17:33.319Z,59.35
2022-09-10T18:20:35.176Z,59.49
2022-09-10T18:23:36.871Z,59.29
2022-09-10T18:26:43.559Z,59.46
2022-09-10T18:29:45.312Z,59.57
2022-09-10T18:32:47.878Z,59.21
2022-09-10T18:35:50.192Z,59.36
2022-09-10T18:38:52.385Z,59.30
2022-09-10T18:41:54.946Z,59.25
2022-09-10T18:44:56.517Z,59.47
2022-09-10T18:47:58.057Z,59.29
2022-09-10T18:51:10.781Z,59.31
2022-09-10T18:54:14.472Z,59.10
2022-09-10T18:57:16.151Z,59.20
2022-09-10T19:00:17.806Z,59.04
2022-09-10T19:03:19.618Z,59.40
2022-09-10T19:06:23.847Z,59.30
2022-09-10T19:09:27.803Z,59.21
2022-09-10T19:12:29.342Z,59.08
2022-09-10T19:15:31.066Z,59.28
2022-09-10T19:18:32.829Z,59.32
2022-09-10T19:21:38.437Z,58.99
2022-09-10T19:24:56.180Z,59.20
2022-09-10T19:27:58.012Z,59.12
2022-09-10T19:31:03.444Z,59.04
2022-09-10T19:34:06.737Z,58.81
2022-09-10T19:37:08.387Z,59.03
2022-09-10T19:40:11.998Z,58.85
2022-09-10T19:43:13.697Z,58.86
2022-09-10T19:46:16.708Z,59.11
2022-09-10T19:49:18.576Z,58.98
2022-09-10T19:52:21.587Z,58.85
2022-09-10T19:55:23.990Z,58.98
2022-09-10T19:58:25.579Z,58.82
2022-09-10T20:01:33.458Z,58.93
2022-09-10T20:04:35.582Z,58.96
2022-09-10T20:07:37.196Z,58.84
2022-09-10T20:10:38.827Z,58.84
2022-09-10T20:13:40.492Z,58.84
2022-09-10T20:16:45.103Z,58.89
2022-09-10T20:19:47.186Z,58.78
2022-09-10T20:22:48.949Z,58.78
2022-09-10T20:25:50.720Z,58.76
2022-09-10T20:29:07.524Z,58.93
2022-09-10T20:32:09.252Z,58.95
2022-09-10T20:35:11.041Z,58.96
2022-09-10T20:38:12.823Z,58.89
2022-09-10T20:41:15.956Z,58.91
2022-09-10T20:44:18.168Z,58.94
2022-09-10T20:47:19.962Z,58.82
2022-09-10T20:50:21.529Z,58.84
2022-09-10T20:53:23.500Z,58.71
2022-09-10T20:56:25.477Z,58.82
2022-09-10T20:59:27.961Z,58.80
2022-09-10T21:02:29.805Z,58.86
2022-09-10T21:05:31.492Z,58.78
2022-09-10T21:08:33.135Z,58.76
2022-09-10T21:11:36.228Z,58.71
2022-09-10T21:14:37.825Z,58.87
2022-09-10T21:17:40.125Z,58.72
2022-09-10T21:20:41.701Z,58.71
2022-09-10T21:23:48.378Z,58.78
2022-09-10T21:26:50.289Z,58.76
2022-09-10T21:29:51.906Z,58.83
2022-09-10T21:32:53.513Z,58.68
2022-09-10T21:36:03.372Z,58.73
2022-09-10T21:39:13.096Z,58.60
2022-09-10T21:42:15.197Z,58.76
2022-09-10T21:45:17.832Z,58.92
2022-09-10T21:48:20.661Z,58.81
2022-09-10T21:51:23.078Z,58.87
2022-09-10T21:54:25.484Z,58.82
2022-09-10T21:57:27.485Z,58.72
2022-09-10T22:00:29.191Z,58.85
2022-09-10T22:03:32.501Z,58.94
2022-09-10T22:06:35.351Z,58.64
2022-09-10T22:09:36.893Z,58.90
2022-09-10T22:12:38.580Z,58.80
2022-09-10T22:15:42.061Z,58.69
2022-09-10T22:18:43.638Z,58.75
2022-09-10T22:21:46.364Z,58.78
2022-09-10T22:24:48.083Z,58.84
2022-09-10T22:27:49.695Z,58.94
2022-09-10T22:30:51.547Z,58.64
2022-09-10T22:33:56.465Z,58.77
2022-09-10T22:36:57.999Z,58.90
2022-09-10T22:40:00.459Z,58.75
2022-09-10T22:43:02.178Z,59.11
2022-09-10T22:46:06.962Z,59.18
2022-09-10T22:49:10.032Z,58.80
2022-09-10T22:52:11.909Z,59.18
2022-09-10T22:55:13.927Z,59.26
2022-09-10T22:58:15.428Z,59.37
2022-09-10T23:01:19.046Z,59.21
2022-09-10T23:04:20.661Z,59.18
2022-09-10T23:07:22.245Z,59.34
2022-09-10T23:10:24.516Z,59.50
2022-09-10T23:13:26.338Z,59.26
2022-09-10T23:16:36.548Z,59.32
2022-09-10T23:19:38.083Z,59.24
2022-09-10T23:22:39.584Z,59.70
2022-09-10T23:25:41.813Z,59.68
2022-09-10T23:28:44.802Z,59.70
2022-09-10T23:31:47.221Z,59.51
2022-09-10T23:34:50.496Z,59.69
2022-09-10T23:37:52.205Z,59.45
2022-09-10T23:40:53.828Z,59.66
2022-09-10T23:43:55.867Z,59.68
2022-09-10T23:46:57.580Z,59.51
2022-09-10T23:49:59.183Z,59.80
2022-09-10T23:53:00.892Z,59.52
2022-09-10T23:56:02.883Z,59.85
2022-09-10T23:59:04.807Z,59.86
